Time;durP1;ratioP1;P1;durP2;ratioP2;P2;SDS_P1;SDS_P2;PMS_P1;PMS_P2;Temp;Humidity;BMP_temperature;BMP_pressure;BME280_temperature;BME280_humidity;BME280_pressure;Samples;Min_cycle;Max_cycle;Signal;HPM_P1;HPM_P2
2021/06/19 00:01:39;;;;;;;4.97;1.20;;;26.00;99.90;;;;;;5010651;28;20225;-88
2021/06/19 00:04:10;;;;;;;5.50;1.27;;;26.00;99.90;;;;;;4999060;28;20647;-87
2021/06/19 00:06:41;;;;;;;4.50;1.10;;;26.00;99.90;;;;;;4985940;28;20344;-87
2021/06/19 00:09:12;;;;;;;4.87;1.23;;;25.80;99.90;;;;;;4995966;28;20479;-87
2021/06/19 00:11:44;;;;;;;1.53;1.07;;;26.00;99.90;;;;;;4988990;28;20571;-88
2021/06/19 00:14:15;;;;;;;3.03;1.03;;;25.90;99.90;;;;;;4994116;28;20214;-85
2021/06/19 00:16:49;;;;;;;3.00;1.50;;;26.00;99.90;;;;;;4995024;28;20300;-86
2021/06/19 00:19:19;;;;;;;3.90;1.10;;;26.10;99.90;;;;;;4998904;28;20207;-88
2021/06/19 00:21:50;;;;;;;9.73;1.70;;;26.20;99.90;;;;;;4998098;28;20296;-89
2021/06/19 00:24:23;;;;;;;5.93;1.10;;;26.20;99.90;;;;;;4998684;28;20218;-86
2021/06/19 00:26:55;;;;;;;3.30;1.20;;;26.00;99.90;;;;;;4994101;28;20241;-88
2021/06/19 00:29:26;;;;;;;19.53;2.43;;;25.80;99.90;;;;;;4996207;28;20230;-87
2021/06/19 00:31:59;;;;;;;1.90;0.83;;;25.50;99.90;;;;;;4995253;28;20257;-88
2021/06/19 00:34:29;;;;;;;2.20;1.07;;;25.60;99.90;;;;;;4996374;28;20264;-89
2021/06/19 00:37:00;;;;;;;2.40;1.13;;;25.70;99.90;;;;;;4996158;28;20632;-89
2021/06/19 00:39:31;;;;;;;3.23;1.20;;;25.30;99.90;;;;;;4996047;28;20228;-90
2021/06/19 00:42:02;;;;;;;2.00;0.97;;;24.90;99.90;;;;;;4994572;28;20539;-87
2021/06/19 00:44:33;;;;;;;4.93;1.07;;;24.80;99.90;;;;;;4995972;28;20210;-88
2021/06/19 00:47:05;;;;;;;2.03;1.00;;;24.80;99.90;;;;;;4995148;28;20724;-88
2021/06/19 00:49:37;;;;;;;2.63;1.13;;;25.00;99.90;;;;;;4996416;28;20214;-88
2021/06/19 00:52:09;;;;;;;2.97;1.37;;;25.20;99.90;;;;;;4992941;28;20221;-87
2021/06/19 00:54:40;;;;;;;3.67;1.10;;;25.50;99.90;;;;;;4995815;28;20289;-89
2021/06/19 00:57:13;;;;;;;2.60;1.00;;;26.20;99.90;;;;;;4995897;28;20282;-89
2021/06/19 00:59:45;;;;;;;2.37;1.13;;;26.70;99.90;;;;;;4994297;28;20253;-86
2021/06/19 01:02:18;;;;;;;2.10;1.00;;;27.00;99.90;;;;;;4995515;28;20390;-86
2021/06/19 01:04:49;;;;;;;2.87;1.07;;;26.70;99.90;;;;;;4997272;28;20593;-89
2021/06/19 01:07:21;;;;;;;2.67;1.33;;;27.20;99.90;;;;;;4995874;28;20365;-87
2021/06/19 01:09:51;;;;;;;2.80;1.10;;;27.60;99.90;;;;;;4993776;28;20301;-87
2021/06/19 01:12:24;;;;;;;6.43;1.50;;;27.60;99.90;;;;;;4996177;28;20341;-87
2021/06/19 01:14:56;;;;;;;2.37;1.10;;;27.30;99.90;;;;;;4995038;28;20281;-88
2021/06/19 01:17:28;;;;;;;2.40;1.17;;;27.70;99.90;;;;;;4996132;28;20238;-88
2021/06/19 01:20:03;;;;;;;4.27;1.10;;;27.60;99.90;;;;;;4995508;28;20224;-88
2021/06/19 01:22:34;;;;;;;2.93;1.13;;;27.30;99.90;;;;;;4996763;28;20210;-88
2021/06/19 01:25:09;;;;;;;2.37;1.07;;;26.80;99.90;;;;;;4994682;28;20228;-88
2021/06/19 01:27:41;;;;;;;3.60;1.00;;;26.70;99.90;;;;;;5016601;28;20253;-88
2021/06/19 01:30:13;;;;;;;3.43;1.50;;;26.40;99.90;;;;;;4657258;28;10000593;-89
2021/06/19 01:32:44;;;;;;;2.70;1.00;;;25.70;99.90;;;;;;4997583;28;20465;-87
2021/06/19 01:35:16;;;;;;;3.13;1.27;;;25.40;99.90;;;;;;4995207;28;20294;-86
2021/06/19 01:37:48;;;;;;;3.53;1.47;;;24.90;99.90;;;;;;4995250;28;20245;-88
2021/06/19 01:40:24;;;;;;;5.80;1.20;;;24.50;99.90;;;;;;4994073;28;20268;-88
2021/06/19 01:42:55;;;;;;;4.43;1.37;;;24.60;99.90;;;;;;4988203;28;20253;-88
2021/06/19 01:45:28;;;;;;;4.40;1.50;;;24.50;99.90;;;;;;4995111;28;20241;-87
2021/06/19 01:48:03;;;;;;;4.23;1.50;;;24.80;99.90;;;;;;4995162;28;20657;-87
2021/06/19 01:50:36;;;;;;;3.77;1.50;;;25.00;99.90;;;;;;4982386;28;20619;-89
2021/06/19 01:53:07;;;;;;;3.33;1.50;;;25.50;99.90;;;;;;4996061;28;20305;-89
2021/06/19 01:55:41;;;;;;;2.73;1.10;;;25.80;99.90;;;;;;4995164;28;20305;-91
2021/06/19 01:58:12;;;;;;;3.60;1.60;;;25.80;99.90;;;;;;4994981;28;20393;-89
2021/06/19 02:00:42;;;;;;;5.73;1.63;;;26.00;99.90;;;;;;4994973;28;20293;-89
2021/06/19 02:03:13;;;;;;;3.97;1.20;;;25.80;99.90;;;;;;4983210;28;20684;-86
2021/06/19 02:05:44;;;;;;;3.37;1.37;;;25.50;99.90;;;;;;4977525;28;20215;-88
2021/06/19 02:08:15;;;;;;;3.80;1.30;;;25.40;99.90;;;;;;4995269;28;20717;-88
2021/06/19 02:10:48;;;;;;;4.30;1.40;;;25.70;99.90;;;;;;4993597;28;20198;-88
2021/06/19 02:13:20;;;;;;;4.87;1.23;;;25.30;99.90;;;;;;4994126;28;20297;-87
2021/06/19 02:15:53;;;;;;;2.90;1.30;;;25.20;99.90;;;;;;4995279;28;20222;-88
2021/06/19 02:18:24;;;;;;;2.83;1.07;;;25.20;99.90;;;;;;4994661;28;20705;-89
2021/06/19 02:20:57;;;;;;;2.83;1.30;;;24.60;99.90;;;;;;4994727;28;20293;-89
2021/06/19 02:23:28;;;;;;;4.27;1.73;;;24.10;99.90;;;;;;4993803;28;20211;-86
2021/06/19 02:26:01;;;;;;;2.63;0.90;;;23.90;99.90;;;;;;4991901;28;20210;-84
2021/06/19 02:28:32;;;;;;;4.60;1.47;;;24.00;99.90;;;;;;4983675;28;20328;-87
2021/06/19 02:31:03;;;;;;;3.43;1.37;;;23.90;99.90;;;;;;4992085;28;20261;-86
2021/06/19 02:33:34;;;;;;;3.80;1.30;;;23.70;99.90;;;;;;4980312;28;20214;-90
2021/06/19 02:36:06;;;;;;;4.23;1.43;;;23.70;99.90;;;;;;4995598;28;20540;-89
2021/06/19 02:38:37;;;;;;;3.33;1.60;;;23.20;99.90;;;;;;4992981;28;20256;-89
2021/06/19 02:41:10;;;;;;;6.57;1.40;;;22.60;99.90;;;;;;4994611;28;20242;-89
2021/06/19 02:43:43;;;;;;;2.37;1.10;;;22.10;99.90;;;;;;4988150;28;20608;-89
2021/06/19 02:46:14;;;;;;;3.70;1.27;;;21.60;99.90;;;;;;4976997;28;20894;-89
2021/06/19 02:48:45;;;;;;;3.97;1.30;;;21.30;99.90;;;;;;4992063;28;20397;-88
2021/06/19 02:51:17;;;;;;;3.97;1.10;;;21.20;99.90;;;;;;4982321;28;20218;-89
2021/06/19 02:53:47;;;;;;;3.03;1.30;;;20.90;99.90;;;;;;4995278;28;20212;-90
2021/06/19 02:56:20;;;;;;;3.77;1.17;;;20.70;99.90;;;;;;4996185;28;21782;-91
2021/06/19 02:58:51;;;;;;;2.87;1.10;;;20.60;99.90;;;;;;4994539;28;20246;-91
2021/06/19 03:01:21;;;;;;;2.57;1.00;;;20.40;99.90;;;;;;4994291;28;20245;-88
2021/06/19 03:03:52;;;;;;;4.30;1.47;;;20.30;99.90;;;;;;4992965;28;20203;-89
2021/06/19 03:06:23;;;;;;;5.47;1.30;;;20.30;99.90;;;;;;4993549;28;20207;-89
2021/06/19 03:08:54;;;;;;;4.33;1.30;;;20.00;99.90;;;;;;4994507;28;20297;-90
2021/06/19 03:11:27;;;;;;;3.80;1.17;;;19.70;99.90;;;;;;4991825;28;20233;-87
2021/06/19 03:13:58;;;;;;;3.17;1.20;;;19.50;99.90;;;;;;4993395;28;20240;-89
2021/06/19 03:16:29;;;;;;;5.73;1.60;;;19.20;99.90;;;;;;4988519;28;20321;-89
2021/06/19 03:19:00;;;;;;;4.07;1.10;;;19.20;99.90;;;;;;4994452;28;20693;-90
2021/06/19 03:21:31;;;;;;;2.67;1.03;;;19.10;99.90;;;;;;4994757;28;20409;-89
2021/06/19 03:24:03;;;;;;;4.37;1.50;;;19.00;99.90;;;;;;4994173;28;20229;-89
2021/06/19 03:26:35;;;;;;;3.13;1.30;;;18.90;99.90;;;;;;4976948;28;20210;-89
2021/06/19 03:29:10;;;;;;;4.17;1.50;;;18.80;99.90;;;;;;4978377;28;20242;-89
2021/06/19 03:31:41;;;;;;;3.57;1.43;;;18.60;99.90;;;;;;4993079;28;20289;-89
2021/06/19 03:34:12;;;;;;;9.67;1.67;;;18.40;99.90;;;;;;4981284;28;20654;-88
2021/06/19 03:36:43;;;;;;;4.67;1.60;;;18.30;99.90;;;;;;4998194;28;20241;-89
2021/06/19 03:39:15;;;;;;;5.10;1.57;;;18.10;99.90;;;;;;4977781;28;20595;-89
2021/06/19 03:41:48;;;;;;;6.43;1.67;;;18.00;99.90;;;;;;4993872;28;20578;-89
2021/06/19 03:44:19;;;;;;;5.97;1.47;;;17.80;99.90;;;;;;4998603;28;20317;-88
2021/06/19 03:46:49;;;;;;;4.90;1.13;;;17.70;99.90;;;;;;4998547;28;20602;-88
2021/06/19 03:49:21;;;;;;;11.67;1.67;;;17.60;99.90;;;;;;4997787;28;20234;-89
2021/06/19 03:51:53;;;;;;;6.57;1.47;;;17.50;99.90;;;;;;5007271;28;20199;-87
2021/06/19 03:54:24;;;;;;;5.43;1.30;;;17.30;99.90;;;;;;5016301;28;20198;-89
2021/06/19 03:56:56;;;;;;;5.30;1.67;;;17.20;99.90;;;;;;5019107;28;20226;-88
2021/06/19 03:59:28;;;;;;;7.83;1.50;;;17.00;99.90;;;;;;5004261;28;20253;-88
2021/06/19 04:01:59;;;;;;;3.83;1.20;;;17.00;99.90;;;;;;4998181;28;20223;-88
2021/06/19 04:04:31;;;;;;;5.70;1.43;;;16.80;99.90;;;;;;5017256;28;20294;-88
2021/06/19 04:07:01;;;;;;;5.20;1.50;;;16.80;99.90;;;;;;5013515;28;20293;-89
2021/06/19 04:09:32;;;;;;;5.23;1.40;;;16.70;99.90;;;;;;4998315;28;20246;-88
2021/06/19 04:12:05;;;;;;;3.83;1.23;;;16.60;99.90;;;;;;5008462;28;20209;-88
2021/06/19 04:14:37;;;;;;;4.70;1.40;;;16.50;99.90;;;;;;5017798;28;20213;-89
2021/06/19 04:17:10;;;;;;;7.87;1.70;;;16.50;99.90;;;;;;5021252;28;20769;-89
2021/06/19 04:19:41;;;;;;;7.00;1.20;;;16.40;99.90;;;;;;5000161;28;20687;-89
2021/06/19 04:22:13;;;;;;;6.43;1.53;;;16.30;99.90;;;;;;5011459;28;20572;-88
2021/06/19 04:24:45;;;;;;;4.37;1.50;;;16.20;99.90;;;;;;4998509;28;20233;-88
2021/06/19 04:27:20;;;;;;;6.40;1.50;;;16.20;99.90;;;;;;5002392;28;20237;-90
2021/06/19 04:29:51;;;;;;;5.87;1.87;;;16.10;99.90;;;;;;4996402;28;20348;-91
2021/06/19 04:32:22;;;;;;;3.87;1.47;;;16.00;99.90;;;;;;4996744;28;20225;-88
2021/06/19 04:34:53;;;;;;;5.00;1.30;;;16.00;99.90;;;;;;4997439;28;20232;-90
2021/06/19 04:37:27;;;;;;;7.33;1.60;;;15.90;99.90;;;;;;4998445;28;20214;-88
2021/06/19 04:40:04;;;;;;;6.40;1.40;;;15.80;99.90;;;;;;4996506;28;20214;-88
2021/06/19 04:42:38;;;;;;;5.60;1.50;;;15.70;99.90;;;;;;4998027;28;20202;-89
2021/06/19 04:45:13;;;;;;;7.13;1.53;;;15.70;99.90;;;;;;4996721;28;20225;-89
2021/06/19 04:47:44;;;;;;;5.50;1.70;;;15.60;99.90;;;;;;5001539;28;20272;-88
2021/06/19 04:50:15;;;;;;;4.60;1.30;;;15.60;99.90;;;;;;4997369;28;20356;-89
2021/06/19 04:52:47;;;;;;;7.77;1.67;;;15.60;99.90;;;;;;4995831;28;20221;-90
2021/06/19 04:55:20;;;;;;;5.93;1.33;;;15.50;99.90;;;;;;4997045;28;20218;-88
2021/06/19 04:57:58;;;;;;;4.47;1.53;;;15.50;99.90;;;;;;5001491;28;20225;-89
2021/06/19 05:00:30;;;;;;;8.97;1.67;;;15.50;99.90;;;;;;4978331;28;20276;-88
2021/06/19 05:03:01;;;;;;;3.80;1.13;;;15.50;99.90;;;;;;4984231;28;20238;-88
2021/06/19 05:05:32;;;;;;;11.73;1.83;;;15.50;99.90;;;;;;5014132;28;20202;-89
2021/06/19 05:08:03;;;;;;;6.73;2.00;;;15.50;99.90;;;;;;5019721;28;20247;-89
2021/06/19 05:10:34;;;;;;;8.80;2.67;;;15.30;99.90;;;;;;5019023;28;20348;-88
2021/06/19 05:13:07;;;;;;;4.97;1.23;;;15.20;99.90;;;;;;5016884;28;20206;-89
2021/06/19 05:15:39;;;;;;;8.57;1.60;;;15.10;99.90;;;;;;5002673;28;20241;-88
2021/06/19 05:18:09;;;;;;;4.57;1.30;;;15.10;99.90;;;;;;5005325;28;20210;-89
2021/06/19 05:20:40;;;;;;;8.90;1.53;;;15.10;99.90;;;;;;5008810;28;20246;-88
2021/06/19 05:23:11;;;;;;;6.83;1.10;;;15.00;99.90;;;;;;5031903;28;20193;-88
2021/06/19 05:25:42;;;;;;;7.40;1.40;;;15.00;99.90;;;;;;5030949;28;20494;-89
2021/06/19 05:28:17;;;;;;;8.90;1.50;;;14.90;99.90;;;;;;5010748;28;20242;-88
2021/06/19 05:30:48;;;;;;;4.90;1.53;;;14.90;99.90;;;;;;5002456;28;20308;-88
2021/06/19 05:33:18;;;;;;;5.67;1.43;;;14.90;99.90;;;;;;5013818;28;20312;-88
2021/06/19 05:35:49;;;;;;;6.20;1.20;;;14.90;99.90;;;;;;5002518;28;20631;-89
2021/06/19 05:38:21;;;;;;;7.47;1.80;;;14.80;99.90;;;;;;4996235;28;20214;-89
2021/06/19 05:40:53;;;;;;;6.73;1.67;;;14.70;99.90;;;;;;4995716;28;20305;-88
2021/06/19 05:43:26;;;;;;;5.20;1.40;;;14.70;99.90;;;;;;4995844;28;20663;-88
2021/06/19 05:45:57;;;;;;;3.33;1.10;;;14.70;99.90;;;;;;4976810;28;20241;-88
2021/06/19 05:48:28;;;;;;;4.07;1.20;;;14.60;99.90;;;;;;4980140;28;20722;-88
2021/06/19 05:50:59;;;;;;;6.20;1.40;;;14.60;99.90;;;;;;4995342;28;20341;-88
2021/06/19 05:53:30;;;;;;;5.43;1.47;;;14.50;99.90;;;;;;4999129;28;20252;-88
2021/06/19 05:56:01;;;;;;;6.33;1.67;;;14.50;99.90;;;;;;5014134;28;20293;-88
2021/06/19 05:58:35;;;;;;;4.97;1.33;;;14.60;99.90;;;;;;5014935;28;20233;-88
2021/06/19 06:01:06;;;;;;;6.03;1.37;;;14.60;99.90;;;;;;5006509;28;20298;-88
2021/06/19 06:03:37;;;;;;;8.80;2.37;;;14.60;99.90;;;;;;4995805;28;20299;-88
2021/06/19 06:06:08;;;;;;;7.30;2.27;;;14.50;99.90;;;;;;4995283;28;20210;-90
2021/06/19 06:08:39;;;;;;;8.17;1.67;;;14.40;99.90;;;;;;4994549;28;20297;-88
2021/06/19 06:11:10;;;;;;;6.30;2.03;;;14.40;99.90;;;;;;4994829;28;20234;-89
2021/06/19 06:13:45;;;;;;;8.70;2.27;;;14.30;99.90;;;;;;4995799;28;20243;-89
2021/06/19 06:16:17;;;;;;;7.63;2.20;;;14.30;99.90;;;;;;4995817;28;20299;-89
2021/06/19 06:18:50;;;;;;;7.57;2.00;;;14.30;99.90;;;;;;5009586;28;20233;-90
2021/06/19 06:21:21;;;;;;;8.57;2.10;;;14.20;99.90;;;;;;5014570;28;20198;-88
2021/06/19 06:23:52;;;;;;;6.03;1.63;;;14.20;99.90;;;;;;5015804;28;20202;-89
2021/06/19 06:26:24;;;;;;;5.03;1.87;;;14.20;99.90;;;;;;5004185;28;20234;-89
2021/06/19 06:29:07;;;;;;;5.97;1.80;;;14.20;99.90;;;;;;4997085;28;20217;-89
2021/06/19 06:31:52;;;;;;;6.17;1.93;;;14.20;99.90;;;;;;4995223;28;20214;-89
2021/06/19 06:34:24;;;;;;;8.07;1.80;;;14.20;99.90;;;;;;4997677;28;20221;-89
2021/06/19 06:36:55;;;;;;;8.43;2.00;;;14.20;99.90;;;;;;5009320;28;20748;-89
2021/06/19 06:39:27;;;;;;;6.97;1.90;;;14.10;99.90;;;;;;5010712;28;20300;-89
2021/06/19 06:41:59;;;;;;;7.07;1.80;;;14.20;99.90;;;;;;5002421;28;20201;-89
2021/06/19 06:44:32;;;;;;;7.33;1.97;;;14.10;99.90;;;;;;5012824;28;20667;-89
2021/06/19 06:47:04;;;;;;;4.47;1.60;;;14.10;99.90;;;;;;4996829;28;20210;-89
2021/06/19 06:49:35;;;;;;;8.47;1.87;;;14.00;99.90;;;;;;4997123;28;20265;-88
2021/06/19 06:52:06;;;;;;;6.03;1.63;;;14.10;99.90;;;;;;5000314;28;20987;-88
2021/06/19 06:54:40;;;;;;;5.93;1.30;;;14.00;99.90;;;;;;4994409;28;20297;-88
2021/06/19 06:57:11;;;;;;;6.27;1.50;;;13.90;99.90;;;;;;4995302;28;20246;-90
2021/06/19 06:59:47;;;;;;;7.73;1.73;;;13.90;99.90;;;;;;5004220;28;20237;-89
2021/06/19 07:02:22;;;;;;;5.57;1.60;;;13.90;99.90;;;;;;5006235;28;20220;-88
2021/06/19 07:04:54;;;;;;;4.77;1.37;;;13.80;99.90;;;;;;5006388;28;20651;-89
2021/06/19 07:07:28;;;;;;;5.03;1.60;;;13.70;99.90;;;;;;5005003;28;20270;-89
2021/06/19 07:10:03;;;;;;;7.60;1.53;;;13.60;99.90;;;;;;5005703;28;20234;-89
2021/06/19 07:12:41;;;;;;;6.10;1.70;;;13.60;99.90;;;;;;5005472;28;20240;-89
2021/06/19 07:15:16;;;;;;;8.57;2.17;;;13.60;99.90;;;;;;5001229;28;20226;-88
2021/06/19 07:17:49;;;;;;;7.60;2.07;;;13.70;99.90;;;;;;5004482;28;20225;-89
2021/06/19 07:20:21;;;;;;;10.43;1.57;;;13.70;99.90;;;;;;5013297;28;20651;-89
2021/06/19 07:22:52;;;;;;;6.03;1.63;;;13.70;99.90;;;;;;5014338;28;20289;-88
2021/06/19 07:25:23;;;;;;;5.47;1.47;;;13.60;99.90;;;;;;4997007;28;20293;-87
2021/06/19 07:27:58;;;;;;;4.93;1.43;;;13.60;99.90;;;;;;5015213;28;20261;-90
2021/06/19 07:30:31;;;;;;;9.67;2.17;;;13.60;99.90;;;;;;5013126;28;20936;-89
2021/06/19 07:33:02;;;;;;;8.77;1.90;;;13.60;99.90;;;;;;5003269;28;20539;-88
2021/06/19 07:35:32;;;;;;;8.53;1.60;;;13.60;99.90;;;;;;4994956;28;20309;-89
2021/06/19 07:38:04;;;;;;;5.10;1.87;;;13.60;99.90;;;;;;4974264;28;20636;-88
2021/06/19 07:40:36;;;;;;;8.03;1.90;;;13.50;99.90;;;;;;4974210;28;20301;-88
2021/06/19 07:43:07;;;;;;;6.77;1.73;;;13.50;99.90;;;;;;4975780;28;20219;-89
2021/06/19 07:45:40;;;;;;;6.20;1.60;;;13.50;99.90;;;;;;4993866;28;20217;-88
2021/06/19 07:48:12;;;;;;;4.47;1.47;;;13.50;99.90;;;;;;5008763;28;20635;-88
2021/06/19 07:50:44;;;;;;;6.43;1.63;;;13.40;99.90;;;;;;5011521;28;20237;-88
2021/06/19 07:53:15;;;;;;;6.20;1.40;;;13.40;99.90;;;;;;5008162;28;20273;-88
2021/06/19 07:55:47;;;;;;;6.27;1.77;;;13.30;99.90;;;;;;4992705;28;20310;-88
2021/06/19 07:58:18;;;;;;;6.20;2.03;;;13.30;99.90;;;;;;4994158;28;20213;-88
2021/06/19 08:00:51;;;;;;;7.83;1.57;;;13.30;99.90;;;;;;4993387;28;20202;-89
2021/06/19 08:03:22;;;;;;;5.27;1.53;;;13.30;99.90;;;;;;4993767;28;20217;-87
2021/06/19 08:05:53;;;;;;;5.37;1.87;;;13.20;99.90;;;;;;4993336;28;20242;-89
2021/06/19 08:08:24;;;;;;;6.57;1.97;;;13.20;99.90;;;;;;4995421;28;20313;-88
2021/06/19 08:10:55;;;;;;;6.47;1.80;;;13.20;99.90;;;;;;4992965;28;20269;-88
2021/06/19 08:13:26;;;;;;;6.77;2.00;;;13.10;99.90;;;;;;4994065;28;20297;-89
2021/06/19 08:16:05;;;;;;;5.00;1.40;;;13.10;99.90;;;;;;4992312;28;20285;-88
2021/06/19 08:18:35;;;;;;;5.00;1.90;;;13.10;99.90;;;;;;4993037;28;20541;-89
2021/06/19 08:21:07;;;;;;;4.27;1.50;;;13.20;99.90;;;;;;4992709;28;20202;-89
2021/06/19 08:23:38;;;;;;;6.40;1.50;;;13.10;99.90;;;;;;4993814;28;20206;-89
2021/06/19 08:26:09;;;;;;;6.77;1.80;;;13.10;99.90;;;;;;4997172;28;20238;-89
2021/06/19 08:28:40;;;;;;;6.50;1.83;;;13.10;99.90;;;;;;4996972;28;20920;-89
2021/06/19 08:31:13;;;;;;;6.30;1.63;;;13.00;99.90;;;;;;4997471;28;20238;-89
2021/06/19 08:33:44;;;;;;;4.77;2.10;;;13.00;99.90;;;;;;4997505;28;20215;-89
2021/06/19 08:36:16;;;;;;;6.07;1.40;;;13.00;99.90;;;;;;4997384;28;20651;-89
2021/06/19 08:38:46;;;;;;;4.43;1.60;;;12.90;99.90;;;;;;5004807;28;20230;-88
2021/06/19 08:41:19;;;;;;;2.67;1.30;;;12.90;99.90;;;;;;5016782;28;20214;-88
2021/06/19 08:43:50;;;;;;;8.37;1.97;;;12.90;99.90;;;;;;5019692;28;20247;-89
2021/06/19 08:46:25;;;;;;;5.97;1.37;;;12.90;99.90;;;;;;5018336;28;20199;-89
2021/06/19 08:48:57;;;;;;;7.40;2.00;;;12.90;99.90;;;;;;5017597;28;20236;-89
2021/06/19 08:51:28;;;;;;;5.87;1.50;;;12.90;99.90;;;;;;4997390;28;20981;-88
2021/06/19 08:53:58;;;;;;;8.90;1.83;;;12.80;99.90;;;;;;4997927;28;20202;-89
2021/06/19 08:56:29;;;;;;;5.70;1.47;;;12.80;99.90;;;;;;5009023;28;20216;-89
2021/06/19 08:59:03;;;;;;;4.27;1.40;;;12.80;99.90;;;;;;4996249;28;20222;-89
2021/06/19 09:01:37;;;;;;;8.83;2.13;;;12.70;99.90;;;;;;4995962;28;20289;-89
2021/06/19 09:04:10;;;;;;;7.00;1.80;;;12.70;99.90;;;;;;5007723;28;20221;-89
2021/06/19 09:06:43;;;;;;;6.33;1.43;;;12.70;99.90;;;;;;5014708;28;20289;-88
2021/06/19 09:09:15;;;;;;;6.63;1.30;;;12.70;99.90;;;;;;5012720;28;20214;-88
2021/06/19 09:11:48;;;;;;;5.07;1.47;;;12.70;99.90;;;;;;4995670;28;20649;-88
2021/06/19 09:14:20;;;;;;;5.17;1.27;;;12.70;99.90;;;;;;4995293;28;20330;-89
2021/06/19 09:17:01;;;;;;;5.17;1.57;;;12.60;99.90;;;;;;4997908;28;20218;-88
2021/06/19 09:19:34;;;;;;;6.17;1.80;;;12.60;99.90;;;;;;4996460;28;20207;-89
2021/06/19 09:22:14;;;;;;;7.33;1.30;;;12.50;99.90;;;;;;5009147;28;20205;-89
2021/06/19 09:24:50;;;;;;;6.97;1.37;;;12.50;99.90;;;;;;5015418;28;20209;-89
2021/06/19 09:27:36;;;;;;;5.90;1.80;;;12.50;99.90;;;;;;5015869;28;20233;-89
2021/06/19 09:30:12;;;;;;;8.97;1.80;;;12.50;99.90;;;;;;5007608;28;20775;-89
2021/06/19 09:32:49;;;;;;;5.73;1.43;;;12.40;99.90;;;;;;4995824;28;20238;-89
2021/06/19 09:35:23;;;;;;;5.53;1.40;;;12.30;99.90;;;;;;4995972;28;20625;-89
2021/06/19 09:37:56;;;;;;;9.87;1.80;;;12.30;99.90;;;;;;4996005;28;20264;-88
2021/06/19 09:40:30;;;;;;;7.37;1.77;;;12.30;99.90;;;;;;4982356;28;20241;-88
2021/06/19 09:43:20;;;;;;;8.23;1.90;;;12.30;99.90;;;;;;4976581;28;21023;-89
2021/06/19 09:46:02;;;;;;;7.73;1.63;;;12.40;99.90;;;;;;4994836;28;20244;-89
2021/06/19 09:48:36;;;;;;;8.60;2.00;;;12.40;99.90;;;;;;4994559;28;20245;-88
2021/06/19 09:51:27;;;;;;;6.87;1.60;;;12.30;99.90;;;;;;4994209;28;20245;-88
2021/06/19 09:54:06;;;;;;;4.50;1.70;;;12.30;99.90;;;;;;4993645;28;20297;-88
2021/06/19 09:56:51;;;;;;;6.10;1.97;;;12.30;99.90;;;;;;4995204;28;20265;-89
2021/06/19 09:59:27;;;;;;;4.50;1.67;;;12.30;99.90;;;;;;4995391;28;20282;-88
2021/06/19 10:01:58;;;;;;;5.20;1.30;;;12.20;99.90;;;;;;4994149;28;20236;-88
2021/06/19 10:04:32;;;;;;;6.23;1.50;;;12.30;99.90;;;;;;4995096;28;20265;-88
2021/06/19 10:07:04;;;;;;;4.50;1.43;;;12.20;99.90;;;;;;4995096;28;20297;-89
2021/06/19 10:09:35;;;;;;;9.83;1.57;;;12.20;99.90;;;;;;4996416;28;20631;-89
2021/06/19 10:12:07;;;;;;;7.97;1.67;;;12.20;99.90;;;;;;4995984;28;20325;-89
2021/06/19 10:14:38;;;;;;;6.53;1.70;;;12.10;99.90;;;;;;5003597;28;20588;-90
2021/06/19 10:17:09;;;;;;;7.17;1.67;;;12.10;99.90;;;;;;5002002;28;20218;-92
2021/06/19 10:19:44;;;;;;;5.63;1.30;;;12.10;99.90;;;;;;4996569;28;20624;-90
2021/06/19 10:22:16;;;;;;;7.20;1.50;;;12.10;99.90;;;;;;4995829;28;20304;-90
2021/06/19 10:24:49;;;;;;;9.60;1.83;;;12.10;99.90;;;;;;4976614;28;20246;-90
2021/06/19 10:27:22;;;;;;;5.17;1.57;;;12.10;99.90;;;;;;4976422;28;20750;-90
2021/06/19 10:29:55;;;;;;;5.93;2.27;;;12.00;99.90;;;;;;4975236;28;20233;-90
2021/06/19 10:32:46;;;;;;;8.33;1.70;;;12.00;99.90;;;;;;4990590;28;20329;-90
2021/06/19 10:35:21;;;;;;;9.80;1.87;;;12.00;99.90;;;;;;4998030;28;20294;-90
2021/06/19 10:37:53;;;;;;;5.93;1.77;;;11.90;99.90;;;;;;4997737;28;20277;-88
2021/06/19 10:40:27;;;;;;;7.27;2.00;;;12.00;99.90;;;;;;5002251;28;20281;-89
2021/06/19 10:43:18;;;;;;;8.10;1.80;;;11.90;99.90;;;;;;5016541;28;20662;-89
2021/06/19 10:45:50;;;;;;;10.13;2.13;;;11.90;99.90;;;;;;5017523;28;20221;-88
2021/06/19 10:48:32;;;;;;;6.90;1.63;;;11.80;99.90;;;;;;5018145;28;20558;-89
2021/06/19 10:51:23;;;;;;;7.23;1.77;;;11.80;99.90;;;;;;5002245;28;20210;-88
2021/06/19 10:54:15;;;;;;;7.20;1.50;;;11.70;99.90;;;;;;4995393;28;20210;-89
2021/06/19 10:56:53;;;;;;;6.33;1.80;;;11.70;99.90;;;;;;4993077;28;20211;-88
2021/06/19 10:59:25;;;;;;;7.27;1.57;;;11.70;99.90;;;;;;5009536;28;20225;-88
2021/06/19 11:01:58;;;;;;;8.47;1.63;;;11.70;99.90;;;;;;4999468;28;20217;-89
2021/06/19 11:04:46;;;;;;;6.83;1.67;;;11.70;99.90;;;;;;5000758;28;20228;-89
2021/06/19 11:08:01;;;;;;;7.13;1.87;;;11.70;99.90;;;;;;5007275;28;20201;-89
2021/06/19 11:10:55;;;;;;;10.57;2.33;;;11.60;99.90;;;;;;5031350;28;20210;-90
2021/06/19 11:13:52;;;;;;;6.93;1.63;;;11.60;99.90;;;;;;5035876;28;20217;-89
2021/06/19 11:16:50;;;;;;;9.77;2.03;;;11.60;99.90;;;;;;4991017;28;20591;-89
2021/06/19 11:19:42;;;;;;;7.27;1.90;;;11.60;99.90;;;;;;4996111;28;20210;-89
2021/06/19 11:22:44;;;;;;;6.73;1.80;;;11.60;99.90;;;;;;4995268;28;20289;-90
2021/06/19 11:25:36;;;;;;;8.17;1.70;;;11.60;99.90;;;;;;4993963;28;20253;-90
2021/06/19 11:28:09;;;;;;;7.93;1.60;;;11.50;99.90;;;;;;4994897;28;20229;-90
2021/06/19 11:30:52;;;;;;;7.43;1.53;;;11.50;99.90;;;;;;4994113;28;20671;-89
2021/06/19 11:33:39;;;;;;;8.33;1.80;;;11.50;99.90;;;;;;4994280;28;20273;-89
2021/06/19 11:36:39;;;;;;;7.20;1.63;;;11.50;99.90;;;;;;4993610;28;20293;-89
2021/06/19 11:39:15;;;;;;;7.17;1.67;;;11.50;99.90;;;;;;4994586;28;20293;-89
2021/06/19 11:41:51;;;;;;;7.63;1.57;;;11.50;99.90;;;;;;4993205;28;20228;-89
2021/06/19 11:47:09;;;;;;;6.87;1.90;;;11.50;99.90;;;;;;4991334;28;20237;-88
2021/06/19 11:49:45;;;;;;;7.73;1.87;;;11.50;99.90;;;;;;4992252;28;20241;-88
2021/06/19 11:52:20;;;;;;;9.00;1.97;;;11.50;99.90;;;;;;4994324;28;20257;-89
2021/06/19 11:54:56;;;;;;;10.40;2.00;;;11.40;99.90;;;;;;4993955;28;20383;-89
2021/06/19 11:57:31;;;;;;;10.07;1.87;;;11.50;99.90;;;;;;4994017;28;20263;-88
2021/06/19 12:00:07;;;;;;;6.33;1.70;;;11.50;99.90;;;;;;4998027;28;20225;-89
2021/06/19 12:02:40;;;;;;;8.10;1.70;;;11.40;99.90;;;;;;5007662;28;20276;-89
2021/06/19 12:05:16;;;;;;;6.33;1.60;;;11.40;99.90;;;;;;4997725;28;20277;-88
2021/06/19 12:07:48;;;;;;;8.40;2.03;;;11.40;99.90;;;;;;5010133;28;20296;-88
2021/06/19 12:10:31;;;;;;;4.47;1.23;;;11.40;99.90;;;;;;5004700;28;20421;-89
2021/06/19 12:13:07;;;;;;;7.73;1.73;;;11.40;99.90;;;;;;4997363;28;20313;-88
2021/06/19 12:15:38;;;;;;;6.20;1.47;;;11.40;99.90;;;;;;4997794;28;20297;-89
2021/06/19 12:18:19;;;;;;;10.17;1.97;;;11.30;99.90;;;;;;5003875;28;20241;-89
2021/06/19 12:21:02;;;;;;;10.43;1.87;;;11.30;99.90;;;;;;5016915;28;20352;-89
2021/06/19 12:23:38;;;;;;;8.53;2.30;;;11.30;99.90;;;;;;5017079;28;20292;-89
2021/06/19 12:26:10;;;;;;;6.47;1.80;;;11.30;99.90;;;;;;5017965;28;20292;-89
2021/06/19 12:28:47;;;;;;;13.20;2.43;;;11.30;99.90;;;;;;4978923;28;20211;-89
2021/06/19 12:31:18;;;;;;;12.83;2.00;;;11.30;99.90;;;;;;4984518;28;20300;-89
2021/06/19 12:33:58;;;;;;;8.27;2.30;;;11.30;99.90;;;;;;4998788;28;20769;-89
2021/06/19 12:36:31;;;;;;;8.37;1.57;;;11.30;99.90;;;;;;4998063;28;20270;-89
2021/06/19 12:39:03;;;;;;;7.70;1.90;;;11.40;99.90;;;;;;4995618;28;20216;-89
2021/06/19 12:41:34;;;;;;;7.23;1.63;;;11.40;99.90;;;;;;4976882;28;20237;-89
2021/06/19 12:44:11;;;;;;;6.00;1.60;;;11.40;99.90;;;;;;4977653;28;20254;-89
2021/06/19 12:46:42;;;;;;;4.57;1.90;;;11.50;99.90;;;;;;4984069;28;20297;-89
2021/06/19 12:49:13;;;;;;;7.77;1.80;;;11.50;99.90;;;;;;5016001;28;20583;-89
2021/06/19 12:51:43;;;;;;;6.87;1.73;;;11.60;99.90;;;;;;5011687;28;20237;-89
2021/06/19 12:54:22;;;;;;;6.93;1.70;;;11.70;99.90;;;;;;4993565;28;20702;-88
2021/06/19 12:56:56;;;;;;;7.20;1.67;;;11.70;99.90;;;;;;4997715;28;20206;-88
2021/06/19 12:59:28;;;;;;;5.93;1.63;;;11.60;99.90;;;;;;4998126;28;20293;-88
2021/06/19 13:02:04;;;;;;;10.63;1.83;;;11.60;99.90;;;;;;4997810;28;20229;-89
2021/06/19 13:04:36;;;;;;;8.43;2.00;;;11.70;99.90;;;;;;4996403;28;20213;-89
2021/06/19 13:07:09;;;;;;;4.83;1.40;;;11.70;99.90;;;;;;4997227;28;20241;-89
2021/06/19 13:09:50;;;;;;;9.83;2.27;;;11.80;99.90;;;;;;4995400;28;20221;-88
2021/06/19 13:12:22;;;;;;;8.00;1.67;;;11.70;99.90;;;;;;4997129;28;20202;-89
2021/06/19 13:15:16;;;;;;;9.97;1.97;;;11.70;99.90;;;;;;4996474;28;20234;-89
2021/06/19 13:17:48;;;;;;;7.23;1.77;;;11.70;99.90;;;;;;4994252;28;20214;-89
2021/06/19 13:20:32;;;;;;;8.23;1.60;;;11.80;99.90;;;;;;4995865;28;20210;-89
2021/06/19 13:23:11;;;;;;;10.93;1.97;;;11.90;99.90;;;;;;4996745;28;20214;-90